Time;durP1;ratioP1;P1;durP2;ratioP2;P2;SDS_P1;SDS_P2;PMS_P1;PMS_P2;Temp;Humidity;BMP_temperature;BMP_pressure;BME280_temperature;BME280_humidity;BME280_pressure;Samples;Min_cycle;Max_cycle;Signal;HPM_P1;HPM_P2
2022/12/20 00:00:33;;;;;;;20.20;7.63;;;;;;;4.53;100.00;101277.06;5075585;28;20457;-68
2022/12/20 00:02:59;;;;;;;24.70;8.90;;;;;;;4.60;100.00;101284.13;5075432;28;20513;-68
2022/12/20 00:05:26;;;;;;;19.80;8.23;;;;;;;4.62;100.00;101276.66;5076394;28;20436;-68
2022/12/20 00:07:52;;;;;;;21.17;7.43;;;;;;;4.67;100.00;101284.78;5075068;28;20481;-68
2022/12/20 00:10:19;;;;;;;17.30;6.67;;;;;;;4.67;100.00;101271.38;5075182;28;20483;-68
2022/12/20 00:12:47;;;;;;;19.30;6.83;;;;;;;4.65;100.00;101271.63;5076140;28;20441;-68
2022/12/20 00:15:13;;;;;;;17.57;7.27;;;;;;;4.67;100.00;101274.06;5075737;28;20563;-68
2022/12/20 00:17:40;;;;;;;21.37;8.07;;;;;;;4.59;100.00;101277.94;5075815;28;20441;-68
2022/12/20 00:20:08;;;;;;;24.83;7.70;;;;;;;4.62;100.00;101276.66;5075617;28;20507;-67
2022/12/20 00:22:35;;;;;;;22.63;9.43;;;;;;;4.65;100.00;101266.25;5076020;28;20437;-68
2022/12/20 00:25:01;;;;;;;17.50;7.37;;;;;;;4.69;100.00;101262.03;5074956;28;20481;-68
2022/12/20 00:27:28;;;;;;;22.40;7.77;;;;;;;4.72;100.00;101263.38;5074891;28;20998;-68
2022/12/20 00:29:56;;;;;;;23.23;8.53;;;;;;;4.72;100.00;101255.34;5075635;28;20453;-68
2022/12/20 00:32:23;;;;;;;17.73;8.13;;;;;;;4.69;100.00;101256.66;5074142;28;20461;-68
2022/12/20 00:34:49;;;;;;;18.73;8.10;;;;;;;4.68;100.00;101265.75;5074931;28;20584;-68
2022/12/20 00:37:16;;;;;;;18.17;7.43;;;;;;;4.71;100.00;101246.47;5074857;28;20548;-68
2022/12/20 00:39:42;;;;;;;15.80;6.80;;;;;;;4.78;100.00;101254.34;5075752;28;20449;-68
2022/12/20 00:42:09;;;;;;;24.50;9.00;;;;;;;4.74;100.00;101263.97;5074080;28;20496;-68
2022/12/20 00:44:36;;;;;;;17.87;7.30;;;;;;;4.68;100.00;101254.19;5074835;28;20480;-68
2022/12/20 00:47:04;;;;;;;17.73;6.67;;;;;;;4.54;100.00;101251.84;5075118;28;20481;-68
2022/12/20 00:49:30;;;;;;;19.80;7.53;;;;;;;4.53;100.00;101244.88;5074617;28;20445;-68
2022/12/20 00:51:57;;;;;;;13.93;7.10;;;;;;;4.52;100.00;101245.94;5074565;28;20472;-68
2022/12/20 00:54:23;;;;;;;15.93;6.53;;;;;;;4.55;100.00;101249.97;5074666;28;20477;-68
2022/12/20 00:56:50;;;;;;;16.00;6.63;;;;;;;4.58;100.00;101254.88;5075003;28;20457;-68
2022/12/20 00:59:17;;;;;;;15.90;7.17;;;;;;;4.50;100.00;101258.75;5075351;28;20438;-69
2022/12/20 01:01:44;;;;;;;21.23;7.70;;;;;;;4.46;100.00;101260.28;5074739;28;20457;-69
2022/12/20 01:04:12;;;;;;;14.33;6.47;;;;;;;4.47;100.00;101261.94;5074112;28;20493;-68
2022/12/20 01:06:38;;;;;;;16.10;6.40;;;;;;;4.47;100.00;101258.44;5074696;28;20576;-69
2022/12/20 01:09:05;;;;;;;15.53;6.27;;;;;;;4.44;100.00;101253.56;5075201;28;20441;-69
2022/12/20 01:11:35;;;;;;;20.77;8.90;;;;;;;4.39;100.00;101258.84;5074516;28;20465;-69
2022/12/20 01:14:04;;;;;;;17.73;6.00;;;;;;;4.35;100.00;101252.34;5074291;28;20564;-69
2022/12/20 01:16:34;;;;;;;21.93;8.60;;;;;;;4.32;100.00;101259.00;5074640;28;20551;-68
2022/12/20 01:19:01;;;;;;;15.73;6.53;;;;;;;4.28;100.00;101258.66;5074977;28;20447;-69
2022/12/20 01:21:29;;;;;;;22.57;8.13;;;;;;;4.35;100.00;101260.41;5073476;28;20548;-69
2022/12/20 01:23:57;;;;;;;15.67;7.23;;;;;;;4.41;100.00;101256.72;5073793;28;21019;-69
2022/12/20 01:26:27;;;;;;;19.07;7.20;;;;;;;4.44;100.00;101262.44;5074339;28;20492;-69
2022/12/20 01:28:55;;;;;;;18.17;6.40;;;;;;;4.46;100.00;101251.44;5074815;28;20425;-69
2022/12/20 01:31:22;;;;;;;16.30;6.43;;;;;;;4.40;100.00;101245.19;5073748;28;20966;-69
2022/12/20 01:33:51;;;;;;;15.80;7.20;;;;;;;4.37;100.00;101247.53;5067934;28;20505;-68
2022/12/20 01:36:20;;;;;;;17.43;7.23;;;;;;;4.33;100.00;101255.25;5059617;28;20464;-68
2022/12/20 01:38:48;;;;;;;22.43;7.83;;;;;;;4.35;100.00;101255.03;5074597;28;20447;-68
2022/12/20 01:41:16;;;;;;;19.10;6.97;;;;;;;4.31;100.00;101252.00;5073418;28;20544;-68
2022/12/20 01:43:50;;;;;;;16.63;5.90;;;;;;;4.29;100.00;101246.06;5073340;28;20552;-69
2022/12/20 01:46:17;;;;;;;13.37;6.33;;;;;;;4.29;100.00;101244.22;5074382;28;20508;-68
2022/12/20 01:48:49;;;;;;;18.20;6.43;;;;;;;4.26;100.00;101247.38;5073204;28;20489;-68
2022/12/20 01:51:17;;;;;;;16.40;6.77;;;;;;;4.26;100.00;101244.69;5074376;28;20433;-68
2022/12/20 01:53:44;;;;;;;20.00;7.40;;;;;;;4.26;100.00;101243.88;5073555;28;20477;-69
2022/12/20 01:56:12;;;;;;;16.93;6.60;;;;;;;4.25;100.00;101240.41;5073930;28;20473;-69
2022/12/20 01:58:40;;;;;;;22.10;7.60;;;;;;;4.27;100.00;101240.94;5073079;28;20457;-70
2022/12/20 02:01:06;;;;;;;19.13;7.37;;;;;;;4.22;100.00;101235.50;5053766;28;20952;-69
2022/12/20 02:03:33;;;;;;;14.63;5.93;;;;;;;4.15;100.00;101232.16;5056808;28;20489;-68
2022/12/20 02:06:15;;;;;;;20.57;8.13;;;;;;;4.20;100.00;101237.59;5074005;28;20441;-68
2022/12/20 02:08:42;;;;;;;21.37;7.03;;;;;;;4.19;100.00;101235.19;5073404;28;20454;-69
2022/12/20 02:11:32;;;;;;;27.43;6.70;;;;;;;4.18;100.00;101239.72;5072881;28;20461;-68
2022/12/20 02:14:12;;;;;;;20.93;7.30;;;;;;;4.22;100.00;101240.88;5072219;28;20580;-68
2022/12/20 02:16:45;;;;;;;18.83;6.73;;;;;;;4.27;100.00;101238.28;5073845;28;20781;-69
2022/12/20 02:19:33;;;;;;;18.83;6.73;;;;;;;4.34;100.00;101239.97;5072841;28;20457;-69
2022/12/20 02:22:14;;;;;;;18.60;7.00;;;;;;;4.30;100.00;101234.31;5073718;28;20422;-68
2022/12/20 02:25:26;;;;;;;18.90;7.07;;;;;;;4.26;100.00;101242.03;5072577;28;20560;-69
2022/12/20 02:28:01;;;;;;;22.63;6.50;;;;;;;4.27;100.00;101237.47;5073451;28;20835;-68
2022/12/20 02:30:34;;;;;;;14.20;6.40;;;;;;;4.33;100.00;101246.41;5072715;28;20457;-68
2022/12/20 02:33:03;;;;;;;15.60;6.70;;;;;;;4.38;100.00;101247.28;5073414;28;20523;-69
2022/12/20 02:35:32;;;;;;;22.03;7.37;;;;;;;4.39;100.00;101234.72;5073020;28;20841;-68
2022/12/20 02:38:01;;;;;;;22.33;8.40;;;;;;;4.45;100.00;101223.81;5073473;28;20437;-68
2022/12/20 02:40:32;;;;;;;14.37;6.47;;;;;;;4.55;100.00;101215.09;5072542;28;20468;-68
2022/12/20 02:43:02;;;;;;;15.57;6.77;;;;;;;4.64;100.00;101207.47;5072694;28;20457;-69
2022/12/20 02:45:33;;;;;;;18.70;7.17;;;;;;;4.63;100.00;101197.78;5073109;28;20969;-68
2022/12/20 02:48:03;;;;;;;22.60;7.73;;;;;;;4.74;100.00;101213.00;5072794;28;20504;-68
2022/12/20 02:50:34;;;;;;;15.37;7.10;;;;;;;4.86;100.00;101196.75;5072558;28;20544;-68
2022/12/20 02:53:01;;;;;;;25.50;7.80;;;;;;;4.90;100.00;101195.22;5072046;28;20524;-68
2022/12/20 02:55:39;;;;;;;15.13;6.40;;;;;;;4.85;100.00;101179.03;5072971;28;20512;-69
2022/12/20 02:58:12;;;;;;;29.10;7.93;;;;;;;4.90;100.00;101184.47;5072659;28;20457;-68
2022/12/20 03:00:43;;;;;;;25.17;7.73;;;;;;;4.80;100.00;101188.66;5073116;28;20477;-69
2022/12/20 03:03:23;;;;;;;17.20;6.67;;;;;;;4.81;100.00;101190.25;5072116;28;20572;-68
2022/12/20 03:05:51;;;;;;;20.57;7.20;;;;;;;4.81;100.00;101190.25;5073209;28;20541;-68
2022/12/20 03:08:19;;;;;;;21.67;7.50;;;;;;;4.86;100.00;101184.16;5071864;28;20495;-68
2022/12/20 03:10:45;;;;;;;14.87;7.30;;;;;;;4.89;100.00;101185.53;5072016;28;20469;-69
2022/12/20 03:13:12;;;;;;;16.60;6.13;;;;;;;4.94;100.00;101182.91;5072833;28;20493;-68
2022/12/20 03:15:40;;;;;;;14.17;5.97;;;;;;;4.99;100.00;101191.84;5072470;28;20468;-69
2022/12/20 03:18:07;;;;;;;13.00;5.30;;;;;;;5.00;100.00;101188.13;5072584;28;20521;-71
2022/12/20 03:20:33;;;;;;;19.40;7.90;;;;;;;5.06;100.00;101187.13;5072160;28;20469;-69
2022/12/20 03:23:00;;;;;;;22.40;7.03;;;;;;;5.12;100.00;101190.66;5072967;28;20442;-70
2022/12/20 03:25:27;;;;;;;14.53;6.77;;;;;;;5.15;100.00;101192.88;5072398;28;20453;-68
2022/12/20 03:27:53;;;;;;;17.03;7.10;;;;;;;5.19;100.00;101207.41;5072626;28;20485;-68
2022/12/20 03:30:20;;;;;;;17.30;7.57;;;;;;;5.23;100.00;101211.22;5072347;28;20461;-67
2022/12/20 03:32:48;;;;;;;19.23;6.70;;;;;;;5.27;100.00;101198.94;5072196;28;20453;-67
2022/12/20 03:35:15;;;;;;;15.13;6.43;;;;;;;5.28;100.00;101189.00;5072914;28;20448;-68
2022/12/20 03:37:41;;;;;;;12.77;5.80;;;;;;;5.21;100.00;101188.34;5071790;28;20456;-68
2022/12/20 03:40:09;;;;;;;19.70;6.23;;;;;;;5.24;100.00;101194.03;5072915;28;20429;-67
2022/12/20 03:42:37;;;;;;;14.20;5.77;;;;;;;5.27;100.00;101198.94;5071451;28;20958;-68
2022/12/20 03:45:04;;;;;;;15.07;6.60;;;;;;;5.26;100.00;101204.53;5072745;28;20811;-68
2022/12/20 03:47:30;;;;;;;20.27;7.20;;;;;;;5.25;100.00;101194.84;5071724;28;20843;-68
2022/12/20 03:49:58;;;;;;;15.80;6.57;;;;;;;5.20;100.00;101184.88;5072433;28;20998;-68
2022/12/20 03:52:25;;;;;;;20.10;6.83;;;;;;;5.16;100.00;101181.06;5071624;28;21028;-68
2022/12/20 03:54:52;;;;;;;17.73;6.73;;;;;;;5.10;100.00;101182.06;5072293;28;20468;-68
2022/12/20 03:57:18;;;;;;;18.17;6.57;;;;;;;5.00;100.00;101188.13;5072112;28;20457;-67
2022/12/20 03:59:45;;;;;;;13.77;6.00;;;;;;;4.99;100.00;101193.72;5072605;28;20437;-68
2022/12/20 04:02:11;;;;;;;18.83;7.30;;;;;;;4.98;100.00;101198.28;5070780;28;20956;-68
2022/12/20 04:04:38;;;;;;;17.77;6.10;;;;;;;5.00;100.00;101204.22;5071977;28;20477;-67
2022/12/20 04:07:06;;;;;;;13.93;6.40;;;;;;;5.00;100.00;101198.84;5072028;28;20461;-67
2022/12/20 04:09:33;;;;;;;15.83;6.87;;;;;;;5.00;100.00;101192.66;5070532;28;20959;-67
2022/12/20 04:11:59;;;;;;;16.80;6.17;;;;;;;4.99;100.00;101183.78;5072087;28;20950;-68
2022/12/20 04:14:26;;;;;;;20.00;6.40;;;;;;;4.90;100.00;101179.09;5072443;28;20504;-68
2022/12/20 04:16:53;;;;;;;17.17;6.50;;;;;;;4.89;100.00;101174.81;5071011;28;20463;-68
2022/12/20 04:19:19;;;;;;;15.83;7.17;;;;;;;4.92;100.00;101179.69;5072165;28;20967;-68
2022/12/20 04:21:46;;;;;;;15.90;7.50;;;;;;;4.96;100.00;101184.31;5071930;28;20458;-68
2022/12/20 04:24:14;;;;;;;15.70;6.67;;;;;;;5.07;100.00;101185.25;5072338;28;20500;-68
2022/12/20 04:26:40;;;;;;;15.10;7.00;;;;;;;5.07;100.00;101179.88;5074154;28;20450;-68
2022/12/20 04:29:07;;;;;;;17.13;6.27;;;;;;;5.06;100.00;101171.00;5075856;28;20484;-68
2022/12/20 04:31:34;;;;;;;17.63;6.73;;;;;;;5.02;100.00;101174.44;5074730;28;20540;-68
2022/12/20 04:34:00;;;;;;;14.33;6.00;;;;;;;5.00;100.00;101180.06;5075473;28;20982;-68
2022/12/20 04:36:27;;;;;;;14.37;6.13;;;;;;;5.08;100.00;101184.16;5074393;28;20557;-68
2022/12/20 04:38:53;;;;;;;18.50;7.67;;;;;;;5.12;100.00;101171.06;5075737;28;20442;-68
2022/12/20 04:41:25;;;;;;;18.73;6.80;;;;;;;5.15;100.00;101170.56;5075033;28;20959;-68
2022/12/20 04:43:53;;;;;;;13.23;6.63;;;;;;;5.18;100.00;101162.00;5075644;28;20465;-67
2022/12/20 04:46:20;;;;;;;18.70;6.80;;;;;;;5.15;100.00;101160.63;5074406;28;20455;-67
2022/12/20 04:48:47;;;;;;;17.17;7.50;;;;;;;5.17;100.00;101165.75;5075512;28;20481;-68
2022/12/20 04:51:14;;;;;;;20.23;6.57;;;;;;;5.21;100.00;101178.44;5075094;28;20457;-68
2022/12/20 04:53:48;;;;;;;17.37;7.13;;;;;;;5.21;100.00;101167.69;5075114;28;20466;-68
2022/12/20 04:56:18;;;;;;;14.20;6.70;;;;;;;5.27;100.00;101161.31;5074169;28;20449;-69
2022/12/20 04:58:46;;;;;;;13.60;6.10;;;;;;;5.13;100.00;101165.44;5075396;28;20441;-68
2022/12/20 05:01:13;;;;;;;17.33;7.03;;;;;;;5.19;100.00;101174.38;5073655;28;20953;-69
2022/12/20 05:03:40;;;;;;;14.57;6.10;;;;;;;5.26;100.00;101172.31;5074960;28;20476;-68
2022/12/20 05:06:07;;;;;;;16.53;7.40;;;;;;;5.30;100.00;101174.22;5073951;28;20457;-68
2022/12/20 05:08:34;;;;;;;15.47;6.20;;;;;;;5.31;100.00;101175.88;5075468;28;20477;-69
2022/12/20 05:11:01;;;;;;;18.10;6.93;;;;;;;5.34;100.00;101181.81;5074154;28;20531;-69
2022/12/20 05:13:28;;;;;;;16.53;6.40;;;;;;;5.30;100.00;101174.22;5076250;28;20982;-68
2022/12/20 05:15:57;;;;;;;13.93;6.17;;;;;;;5.27;100.00;101157.84;5073762;28;20544;-68
2022/12/20 05:18:24;;;;;;;20.27;6.70;;;;;;;5.18;100.00;101159.31;5074770;28;20438;-68
2022/12/20 05:26:16;;;;;;;19.37;7.23;;;;;;;5.22;100.00;101165.81;5074046;28;20552;-68
2022/12/20 05:26:23;;;;;;;13.47;6.27;;;;;;;5.19;100.00;101147.53;5073557;28;20507;-68
2022/12/20 05:28:50;;;;;;;19.53;7.20;;;;;;;5.22;100.00;101150.53;5074841;28;20462;-68
2022/12/20 05:31:18;;;;;;;15.83;7.73;;;;;;;5.24;100.00;101156.44;5074161;28;21046;-69
2022/12/20 05:33:45;;;;;;;12.07;5.03;;;;;;;5.25;100.00;101144.63;5074729;28;20472;-69
2022/12/20 05:36:12;;;;;;;13.17;5.80;;;;;;;5.26;100.00;101135.50;5072927;28;20966;-68
2022/12/20 05:38:38;;;;;;;15.13;5.67;;;;;;;5.21;100.00;101138.16;5074245;28;20813;-68
2022/12/20 05:41:05;;;;;;;13.53;6.43;;;;;;;5.25;100.00;101143.84;5073376;28;20465;-69
2022/12/20 05:43:32;;;;;;;13.40;5.60;;;;;;;5.28;100.00;101152.19;5074082;28;20485;-68
2022/12/20 05:45:59;;;;;;;14.43;6.40;;;;;;;5.29;100.00;101163.75;5073421;28;20549;-69
2022/12/20 05:48:27;;;;;;;15.47;6.53;;;;;;;5.30;100.00;101143.88;5074246;28;20485;-68
2022/12/20 05:50:53;;;;;;;18.70;5.67;;;;;;;5.20;100.00;101139.22;5072209;28;20856;-68
2022/12/20 05:53:20;;;;;;;20.53;7.10;;;;;;;5.21;100.00;101129.28;5073727;28;20466;-68
2022/12/20 05:55:49;;;;;;;16.23;6.03;;;;;;;5.18;100.00;101135.97;5073064;28;20553;-68
2022/12/20 05:58:16;;;;;;;14.77;5.90;;;;;;;5.19;100.00;101134.91;5074262;28;20440;-69
2022/12/20 06:00:44;;;;;;;14.93;6.57;;;;;;;5.21;100.00;101146.19;5073812;28;20447;-68
2022/12/20 06:03:12;;;;;;;14.77;6.87;;;;;;;5.24;100.00;101151.06;5072846;28;20483;-69
2022/12/20 06:05:41;;;;;;;15.87;6.40;;;;;;;5.19;100.00;101145.66;5072482;28;20974;-69
2022/12/20 06:08:08;;;;;;;15.13;7.23;;;;;;;5.22;100.00;101152.38;5073988;28;20480;-68
2022/12/20 06:10:36;;;;;;;27.10;7.67;;;;;;;5.23;100.00;101160.22;5074059;28;20448;-69
2022/12/20 06:13:03;;;;;;;16.60;6.43;;;;;;;5.29;100.00;101161.88;5073482;28;20489;-68
2022/12/20 06:15:30;;;;;;;17.30;6.40;;;;;;;5.32;100.00;101165.94;5072958;28;20440;-68
2022/12/20 06:17:57;;;;;;;18.20;6.10;;;;;;;5.30;100.00;101168.06;5073538;28;20453;-68
2022/12/20 06:20:24;;;;;;;15.70;6.40;;;;;;;5.29;100.00;101159.19;5073865;28;20429;-68
2022/12/20 06:22:52;;;;;;;15.73;6.87;;;;;;;5.35;100.00;101172.66;5073062;28;20847;-68
2022/12/20 06:25:19;;;;;;;14.30;5.30;;;;;;;5.36;100.00;101169.75;5073430;28;20437;-68
2022/12/20 06:27:46;;;;;;;18.33;6.97;;;;;;;5.37;100.00;101159.81;5072244;28;20962;-68
2022/12/20 06:30:13;;;;;;;17.03;6.57;;;;;;;5.37;100.00;101157.94;5073335;28;20520;-68
2022/12/20 06:32:40;;;;;;;18.43;6.70;;;;;;;5.41;100.00;101150.19;5072613;28;20565;-68
2022/12/20 06:35:07;;;;;;;16.23;6.33;;;;;;;5.43;100.00;101153.44;5073634;28;20814;-68
2022/12/20 06:37:35;;;;;;;19.30;7.30;;;;;;;5.31;100.00;101150.88;5072539;28;20496;-68
2022/12/20 06:40:04;;;;;;;15.43;7.13;;;;;;;5.29;100.00;101159.19;5066854;28;20842;-68
2022/12/20 06:42:32;;;;;;;16.03;6.60;;;;;;;5.34;100.00;101163.00;5071639;28;20494;-68
2022/12/20 06:44:59;;;;;;;17.10;7.10;;;;;;;5.37;100.00;101157.13;5072235;28;20483;-68
2022/12/20 06:47:25;;;;;;;13.93;6.03;;;;;;;5.39;100.00;101163.84;5073074;28;20812;-68
2022/12/20 06:49:52;;;;;;;13.50;5.67;;;;;;;5.38;100.00;101159.56;5071027;28;20485;-68
2022/12/20 06:52:18;;;;;;;16.77;6.47;;;;;;;5.39;100.00;101160.38;5073402;28;20442;-68
2022/12/20 06:54:45;;;;;;;15.07;6.70;;;;;;;5.36;100.00;101168.91;5071123;28;20495;-68
2022/12/20 06:57:13;;;;;;;16.47;6.67;;;;;;;5.35;100.00;101167.28;5073271;28;20441;-68
2022/12/20 06:59:40;;;;;;;16.43;7.00;;;;;;;5.36;100.00;101163.53;5073066;28;20441;-68
2022/12/20 07:02:06;;;;;;;17.47;6.10;;;;;;;5.37;100.00;101175.94;5072770;28;20445;-69
2022/12/20 07:04:33;;;;;;;12.10;5.63;;;;;;;5.26;100.00;101167.75;5072702;28;20469;-70
2022/12/20 07:07:00;;;;;;;23.17;8.13;;;;;;;5.22;100.00;101180.06;5073264;28;20440;-70
2022/12/20 07:09:26;;;;;;;15.20;6.10;;;;;;;5.26;100.00;101186.53;5073160;28;20484;-68
2022/12/20 07:11:53;;;;;;;14.63;6.40;;;;;;;5.26;100.00;101181.16;5073188;28;20448;-70
2022/12/20 07:14:21;;;;;;;12.03;5.33;;;;;;;5.20;100.00;101187.56;5072717;28;21051;-70
2022/12/20 07:16:48;;;;;;;13.10;5.60;;;;;;;5.26;100.00;101197.28;5073139;28;20447;-70
2022/12/20 07:19:16;;;;;;;13.60;5.73;;;;;;;5.32;100.00;101200.88;5072873;28;20532;-69
2022/12/20 07:21:43;;;;;;;14.80;6.87;;;;;;;5.27;100.00;101193.56;5073094;28;20443;-69
2022/12/20 07:24:10;;;;;;;19.27;6.40;;;;;;;5.30;100.00;101202.97;5072929;28;20468;-68
2022/12/20 07:26:37;;;;;;;20.00;7.20;;;;;;;5.25;100.00;101208.28;5071863;28;20485;-69
2022/12/20 07:29:03;;;;;;;16.60;6.40;;;;;;;5.25;100.00;101217.16;5072458;28;20485;-68
2022/12/20 07:31:31;;;;;;;12.27;5.57;;;;;;;5.24;100.00;101215.53;5071637;28;20480;-68
2022/12/20 07:33:58;;;;;;;13.90;6.13;;;;;;;5.26;100.00;101218.78;5072277;28;20483;-68
2022/12/20 07:36:24;;;;;;;16.13;6.40;;;;;;;5.19;100.00;101212.78;5071906;28;20457;-69
2022/12/20 07:38:51;;;;;;;15.37;6.80;;;;;;;5.19;100.00;101222.72;5072421;28;20456;-68
2022/12/20 07:41:18;;;;;;;16.03;6.83;;;;;;;5.21;100.00;101209.84;5072134;28;20540;-70
2022/12/20 07:43:45;;;;;;;14.00;5.23;;;;;;;5.19;100.00;101218.16;5072530;28;20467;-70
2022/12/20 07:46:13;;;;;;;18.90;7.57;;;;;;;5.15;100.00;101211.66;5071447;28;20968;-70
2022/12/20 07:48:43;;;;;;;16.27;6.60;;;;;;;5.16;100.00;101213.28;5072501;28;20480;-70
2022/12/20 07:51:14;;;;;;;14.00;6.07;;;;;;;5.17;100.00;101200.66;5072067;28;20888;-70
2022/12/20 07:53:45;;;;;;;18.63;6.63;;;;;;;5.18;100.00;101211.16;5071698;28;20469;-70
2022/12/20 07:56:13;;;;;;;18.30;5.87;;;;;;;5.17;100.00;101204.16;5068790;28;20453;-69
2022/12/20 07:58:41;;;;;;;13.37;5.70;;;;;;;5.17;100.00;101197.97;5070610;28;20463;-69
2022/12/20 08:01:10;;;;;;;12.17;5.43;;;;;;;5.19;100.00;101198.56;5076181;28;20491;-69
2022/12/20 08:03:39;;;;;;;11.80;5.30;;;;;;;5.20;100.00;101203.66;5074732;28;20496;-68
2022/12/20 08:06:09;;;;;;;15.17;6.60;;;;;;;5.18;100.00;101211.16;5075310;28;20468;-68
2022/12/20 08:08:38;;;;;;;23.83;6.60;;;;;;;5.23;100.00;101205.06;5076228;28;20568;-68
2022/12/20 08:11:09;;;;;;;15.53;7.13;;;;;;;5.27;100.00;101201.63;5075206;28;20461;-68
2022/12/20 08:13:36;;;;;;;21.60;7.30;;;;;;;5.32;100.00;101198.19;5075185;28;20499;-67
2022/12/20 08:16:03;;;;;;;22.50;7.70;;;;;;;5.36;100.00;101211.88;5076301;28;20437;-68
2022/12/20 08:18:30;;;;;;;18.63;7.67;;;;;;;5.36;100.00;101199.31;5074250;28;20456;-69
2022/12/20 08:20:57;;;;;;;14.60;5.63;;;;;;;5.37;100.00;101208.16;5075615;28;20950;-68
2022/12/20 08:23:25;;;;;;;16.70;5.80;;;;;;;5.34;100.00;101203.28;5075475;28;20461;-68
2022/12/20 08:25:51;;;;;;;14.87;7.23;;;;;;;5.35;100.00;101199.53;5075607;28;20463;-68
2022/12/20 08:28:18;;;;;;;17.03;6.90;;;;;;;5.34;100.00;101196.03;5075746;28;20476;-68
2022/12/20 08:30:45;;;;;;;12.03;5.87;;;;;;;5.27;100.00;101188.19;5072738;28;20493;-68
2022/12/20 08:33:12;;;;;;;16.17;6.40;;;;;;;5.28;100.00;101194.38;5074825;28;20507;-68
2022/12/20 08:35:38;;;;;;;14.77;5.73;;;;;;;5.23;100.00;101186.25;5075327;28;20544;-68
2022/12/20 08:38:05;;;;;;;17.13;6.60;;;;;;;5.28;100.00;101184.44;5075360;28;20494;-68
2022/12/20 08:40:34;;;;;;;14.40;5.20;;;;;;;5.30;100.00;101182.28;5074175;28;20458;-68
2022/12/20 08:43:00;;;;;;;21.63;7.07;;;;;;;5.41;100.00;101191.28;5074922;28;20453;-68
2022/12/20 08:45:27;;;;;;;15.80;6.50;;;;;;;5.48;100.00;101185.72;5075119;28;20500;-68
2022/12/20 08:47:54;;;;;;;15.93;6.60;;;;;;;5.47;100.00;101181.41;5074392;28;20465;-71
2022/12/20 08:50:21;;;;;;;12.50;5.00;;;;;;;5.51;100.00;101174.47;5074029;28;20488;-70
2022/12/20 08:52:47;;;;;;;18.63;8.30;;;;;;;5.46;100.00;101183.28;5075585;28;20534;-69
2022/12/20 08:55:14;;;;;;;14.03;6.50;;;;;;;5.47;100.00;101173.34;5074341;28;20463;-69
2022/12/20 08:57:42;;;;;;;17.90;6.80;;;;;;;5.50;100.00;101178.22;5073485;28;20469;-70
2022/12/20 09:00:10;;;;;;;17.83;8.00;;;;;;;5.56;100.00;101179.91;5075182;28;20457;-69
2022/12/20 09:02:37;;;;;;;15.27;7.10;;;;;;;5.58;100.00;101183.16;5072289;28;20485;-70
2022/12/20 09:05:04;;;;;;;15.00;6.47;;;;;;;5.61;100.00;101177.25;5073668;28;20943;-70
2022/12/20 09:07:30;;;;;;;21.13;7.77;;;;;;;5.67;100.00;101178.94;5074947;28;20460;-70
2022/12/20 09:09:57;;;;;;;18.23;7.40;;;;;;;5.68;100.00;101167.13;5074544;28;20482;-69
2022/12/20 09:12:23;;;;;;;12.30;5.13;;;;;;;5.69;100.00;101170.63;5073922;28;20465;-70
2022/12/20 09:14:51;;;;;;;22.40;7.80;;;;;;;5.76;100.00;101169.38;5074144;28;20563;-70
2022/12/20 09:17:18;;;;;;;20.63;7.07;;;;;;;5.88;100.00;101165.69;5074152;28;20461;-70
2022/12/20 09:19:44;;;;;;;25.77;7.30;;;;;;;6.01;100.00;101159.91;5074433;28;20453;-70
2022/12/20 09:22:11;;;;;;;16.30;7.13;;;;;;;6.09;100.00;101154.06;5073665;28;20464;-70
2022/12/20 09:24:37;;;;;;;18.37;8.37;;;;;;;6.14;100.00;101154.09;5074778;28;20465;-70
2022/12/20 09:27:04;;;;;;;15.53;6.67;;;;;;;6.15;100.00;101152.22;5073664;28;20469;-70
2022/12/20 09:29:30;;;;;;;16.10;7.33;;;;;;;6.25;100.00;101157.72;5074312;28;20489;-70
2022/12/20 09:31:58;;;;;;;15.53;6.87;;;;;;;6.30;100.00;101163.91;5071814;28;20468;-70
2022/12/20 09:34:25;;;;;;;22.80;7.07;;;;;;;6.42;100.00;101163.75;5073589;28;20457;-70
2022/12/20 09:36:52;;;;;;;13.73;6.50;;;;;;;6.47;100.00;101165.66;5074703;28;20445;-70
2022/12/20 09:39:18;;;;;;;20.37;8.73;;;;;;;6.52;100.00;101163.81;5073803;28;20465;-70
2022/12/20 09:41:45;;;;;;;19.60;7.33;;;;;;;6.54;100.00;101168.91;5074558;28;20437;-71
2022/12/20 09:44:18;;;;;;;22.97;9.00;;;;;;;6.58;100.00;101162.75;5073080;28;20480;-70
2022/12/20 09:46:51;;;;;;;26.20;10.27;;;;;;;6.60;100.00;101159.81;5059138;28;21032;-70
2022/12/20 09:49:19;;;;;;;21.93;9.80;;;;;;;6.64;100.00;101160.94;5073427;28;20468;-70
2022/12/20 09:52:09;;;;;;;15.33;6.83;;;;;;;6.62;100.00;101154.16;5072457;28;21034;-69
2022/12/20 09:54:45;;;;;;;15.80;7.40;;;;;;;6.64;100.00;101160.09;5068832;28;20491;-70
2022/12/20 09:57:22;;;;;;;16.23;7.03;;;;;;;6.68;100.00;101156.63;5072232;28;21037;-70
2022/12/20 09:59:49;;;;;;;19.77;8.30;;;;;;;6.74;100.00;101158.28;5073573;28;20436;-69
2022/12/20 10:02:20;;;;;;;18.63;7.70;;;;;;;6.76;100.00;101155.31;5072467;28;20457;-69
2022/12/20 10:04:49;;;;;;;17.77;7.03;;;;;;;6.81;100.00;101155.34;5072743;28;20491;-70
2022/12/20 10:07:27;;;;;;;15.37;6.60;;;;;;;6.88;100.00;101165.88;5073399;28;20529;-70
2022/12/20 10:10:11;;;;;;;17.13;6.80;;;;;;;6.91;100.00;101157.31;5072937;28;20523;-70
2022/12/20 10:12:47;;;;;;;19.90;7.73;;;;;;;6.94;100.00;101165.63;5073048;28;20547;-70
2022/12/20 10:15:19;;;;;;;18.27;8.10;;;;;;;6.98;100.00;101157.84;5072005;28;20574;-69
2022/12/20 10:17:58;;;;;;;16.43;8.23;;;;;;;6.93;100.00;101155.13;5070546;28;20946;-69
2022/12/20 10:20:41;;;;;;;18.70;6.57;;;;;;;6.86;100.00;101143.78;5072433;28;20486;-71
2022/12/20 10:23:15;;;;;;;13.97;6.80;;;;;;;6.90;100.00;101136.81;5072939;28;20473;-71
2022/12/20 10:25:44;;;;;;;26.30;8.53;;;;;;;6.97;100.00;101130.13;5072204;28;20453;-72
2022/12/20 10:28:14;;;;;;;20.83;7.97;;;;;;;7.02;100.00;101127.44;5073123;28;20488;-72
2022/12/20 10:30:40;;;;;;;14.70;6.90;;;;;;;7.02;100.00;101122.03;5072957;28;20492;-72
2022/12/20 10:33:16;;;;;;;17.33;7.40;;;;;;;7.01;100.00;101112.34;5072687;28;20519;-70
2022/12/20 10:35:45;;;;;;;12.70;6.50;;;;;;;7.07;100.00;101108.59;5072765;28;20453;-71
2022/12/20 10:38:14;;;;;;;14.67;6.97;;;;;;;7.00;100.00;101101.84;5072974;28;20452;-72
2022/12/20 10:40:44;;;;;;;17.70;7.60;;;;;;;6.91;100.00;101098.06;5072889;28;20449;-71
2022/12/20 10:43:16;;;;;;;19.53;7.90;;;;;;;6.98;100.00;101095.91;5072868;28;20467;-70
2022/12/20 10:45:45;;;;;;;18.17;8.67;;;;;;;7.07;100.00;101088.94;5072879;28;20885;-70
2022/12/20 10:48:27;;;;;;;14.53;6.77;;;;;;;7.11;100.00;101097.31;5072799;28;20438;-70
2022/12/20 10:50:58;;;;;;;21.43;6.70;;;;;;;7.11;100.00;101097.31;5072628;28;20469;-71
2022/12/20 10:53:26;;;;;;;17.70;7.60;;;;;;;6.90;100.00;101081.06;5072659;28;20457;-71
2022/12/20 10:55:55;;;;;;;15.90;6.53;;;;;;;6.99;100.00;101073.28;5072679;28;20494;-71
2022/12/20 10:58:32;;;;;;;20.97;7.40;;;;;;;7.00;100.00;101069.53;5072681;28;20789;-71
2022/12/20 11:01:11;;;;;;;16.33;6.90;;;;;;;6.97;100.00;101057.41;5072376;28;20505;-70
2022/12/20 11:03:50;;;;;;;16.10;7.13;;;;;;;6.96;100.00;101053.09;5072121;28;21012;-71
2022/12/20 11:06:20;;;;;;;18.20;6.20;;;;;;;7.03;100.00;101059.03;5072596;28;20421;-71
2022/12/20 11:08:48;;;;;;;17.67;6.57;;;;;;;7.16;100.00;101067.69;5072159;28;20456;-69
2022/12/20 11:11:17;;;;;;;15.20;6.20;;;;;;;7.15;100.00;101039.13;5072194;28;20480;-71
2022/12/20 11:13:45;;;;;;;17.23;8.60;;;;;;;7.24;100.00;101032.13;5072124;28;21065;-70
2022/12/20 11:16:25;;;;;;;19.13;7.10;;;;;;;7.27;100.00;101037.81;5072203;28;20933;-71
2022/12/20 11:19:00;;;;;;;19.80;7.50;;;;;;;7.30;100.00;101036.44;5072589;28;20784;-71
2022/12/20 11:21:39;;;;;;;12.13;5.77;;;;;;;7.36;100.00;101039.97;5072625;28;20468;-71
2022/12/20 11:24:13;;;;;;;14.83;6.00;;;;;;;7.40;100.00;101039.16;5072079;28;20879;-71
2022/12/20 11:26:55;;;;;;;15.07;6.70;;;;;;;7.42;100.00;101030.81;5072121;28;20458;-72